Time;durP1;ratioP1;P1;durP2;ratioP2;P2;SDS_P1;SDS_P2;PMS_P1;PMS_P2;Temp;Humidity;BMP_temperature;BMP_pressure;BME280_temperature;BME280_humidity;BME280_pressure;Samples;Min_cycle;Max_cycle;Signal;HPM_P1;HPM_P2
2022/11/28 00:01:28;;;;;;;18.67;10.52;;;;;;;13.80;60.67;101077.69;5054546;28;20116;-71
2022/11/28 00:03:54;;;;;;;15.20;9.43;;;;;;;13.23;62.41;101079.47;5040379;28;20025;-70
2022/11/28 00:06:20;;;;;;;16.67;9.15;;;;;;;13.41;62.20;101076.63;5043072;28;20037;-70
2022/11/28 00:08:45;;;;;;;17.85;9.23;;;;;;;13.76;61.15;101071.13;5038682;28;20095;-69
2022/11/28 00:11:13;;;;;;;17.15;9.60;;;;;;;13.49;62.13;101078.94;5039318;28;20119;-69
2022/11/28 00:13:39;;;;;;;16.85;8.77;;;;;;;13.83;61.43;101061.00;5049021;28;20040;-70
2022/11/28 00:16:06;;;;;;;18.45;10.23;;;;;;;13.67;62.02;101064.47;5049864;28;20025;-69
2022/11/28 00:18:32;;;;;;;15.68;11.27;;;;;;;13.90;60.81;101065.19;5048137;28;20037;-69
2022/11/28 00:21:07;;;;;;;18.92;9.80;;;;;;;14.21;59.95;101061.16;5044934;28;20037;-69
2022/11/28 00:23:33;;;;;;;18.95;9.32;;;;;;;13.43;61.67;101057.47;5049914;28;20050;-70
2022/11/28 00:26:01;;;;;;;16.70;10.90;;;;;;;13.82;61.18;101051.25;5047880;28;20071;-69
2022/11/28 00:28:26;;;;;;;13.63;9.70;;;;;;;13.96;60.70;101058.00;5039826;28;20405;-70
2022/11/28 00:30:52;;;;;;;17.88;10.20;;;;;;;14.04;60.72;101052.22;5040408;28;20036;-70
2022/11/28 00:33:17;;;;;;;14.35;9.30;;;;;;;13.15;63.31;101050.97;5050646;28;20116;-69
2022/11/28 00:35:42;;;;;;;14.55;9.35;;;;;;;13.76;61.29;101047.63;5052139;28;20025;-69
2022/11/28 00:38:08;;;;;;;16.10;9.73;;;;;;;13.91;61.05;101039.84;5052090;28;20041;-69
2022/11/28 00:40:33;;;;;;;19.25;10.02;;;;;;;13.88;61.52;101050.28;5052386;28;20561;-71
2022/11/28 00:42:58;;;;;;;21.33;10.65;;;;;;;13.89;61.23;101038.44;5034367;28;20017;-70
2022/11/28 00:45:24;;;;;;;16.05;9.50;;;;;;;14.04;60.91;101042.22;5042231;28;20140;-69
2022/11/28 00:47:49;;;;;;;17.08;9.70;;;;;;;13.87;61.10;101035.97;5052169;28;21328;-69
2022/11/28 00:50:15;;;;;;;14.25;9.30;;;;;;;13.63;62.35;101029.03;5051926;28;20095;-70
2022/11/28 00:52:40;;;;;;;19.52;10.77;;;;;;;14.20;60.61;101032.50;5052049;28;20025;-70
2022/11/28 00:55:06;;;;;;;23.63;9.88;;;;;;;14.26;60.61;101030.69;5052156;28;20029;-70
2022/11/28 00:57:31;;;;;;;18.20;10.07;;;;;;;13.86;61.60;101030.78;5066358;28;20048;-70
2022/11/28 00:59:56;;;;;;;14.93;9.65;;;;;;;14.64;59.23;101028.13;5072381;28;20052;-69
2022/11/28 01:02:22;;;;;;;13.02;9.18;;;;;;;14.44;59.75;101017.81;5072268;28;20064;-69
2022/11/28 01:04:47;;;;;;;19.83;9.60;;;;;;;14.31;60.62;101012.72;5072260;28;20039;-69
2022/11/28 01:07:13;;;;;;;16.13;9.70;;;;;;;14.43;60.15;101010.75;5070406;28;20067;-71
2022/11/28 01:09:38;;;;;;;17.63;10.02;;;;;;;14.15;60.98;101007.28;5072775;28;20115;-69
2022/11/28 01:12:03;;;;;;;17.35;9.88;;;;;;;14.20;60.42;100996.53;5071206;28;20551;-71
2022/11/28 01:14:29;;;;;;;13.40;9.90;;;;;;;14.41;59.64;101002.06;5071555;28;20048;-69
2022/11/28 01:16:55;;;;;;;14.23;9.18;;;;;;;14.40;59.99;100997.75;5071539;28;20040;-70
2022/11/28 01:19:20;;;;;;;19.08;9.48;;;;;;;14.24;59.73;101000.41;5071977;28;20048;-69
2022/11/28 01:21:46;;;;;;;20.55;10.38;;;;;;;14.21;60.18;101006.31;5072218;28;20036;-70
2022/11/28 01:24:12;;;;;;;15.30;9.23;;;;;;;13.86;61.15;100998.38;5071118;28;20068;-69
2022/11/28 01:26:39;;;;;;;15.13;10.30;;;;;;;14.13;60.51;100988.63;5071440;28;20040;-69
2022/11/28 01:29:04;;;;;;;15.13;10.32;;;;;;;13.89;61.77;100987.09;5071717;28;20444;-70
2022/11/28 01:31:30;;;;;;;17.40;9.75;;;;;;;13.88;61.20;100980.03;5071590;28;20032;-69
2022/11/28 01:33:56;;;;;;;15.05;9.93;;;;;;;14.30;60.63;100978.66;5070465;28;20078;-68
2022/11/28 01:36:22;;;;;;;22.05;10.40;;;;;;;13.95;61.18;100978.81;5052077;28;20036;-69
2022/11/28 01:38:48;;;;;;;16.50;10.60;;;;;;;13.89;61.21;100977.13;5051544;28;20029;-69
2022/11/28 01:41:15;;;;;;;17.17;11.38;;;;;;;13.84;61.94;100971.63;5051354;28;20036;-69
2022/11/28 01:44:02;;;;;;;15.70;11.40;;;;;;;14.07;61.82;100981.47;5051548;28;20036;-70
2022/11/28 01:46:29;;;;;;;19.08;10.75;;;;;;;13.71;63.16;100979.19;5051498;28;20048;-70
2022/11/28 01:49:02;;;;;;;18.77;10.32;;;;;;;13.91;62.84;100980.41;5051438;28;20032;-70
2022/11/28 01:51:29;;;;;;;21.35;10.63;;;;;;;13.55;64.56;100966.47;5051861;28;20044;-70
2022/11/28 01:53:54;;;;;;;14.77;10.10;;;;;;;13.95;63.08;100959.13;5057111;28;20060;-71
2022/11/28 01:56:26;;;;;;;17.92;10.63;;;;;;;13.53;64.98;100960.50;5069084;28;20132;-70
2022/11/28 01:58:56;;;;;;;18.65;13.55;;;;;;;14.14;62.28;100960.50;5071385;28;20040;-70
2022/11/28 02:01:24;;;;;;;19.05;11.52;;;;;;;13.80;63.57;100959.66;5071520;28;20124;-71
2022/11/28 02:03:51;;;;;;;21.83;11.10;;;;;;;13.81;64.19;100955.91;5070079;28;20527;-69
2022/11/28 02:06:20;;;;;;;17.75;11.75;;;;;;;14.09;63.15;100963.94;5071635;28;20821;-70
2022/11/28 02:08:48;;;;;;;17.92;11.35;;;;;;;13.94;63.85;100966.38;5069620;28;20035;-69
2022/11/28 02:11:17;;;;;;;20.70;11.23;;;;;;;14.36;62.95;100953.34;5071196;28;20036;-70
2022/11/28 02:14:19;;;;;;;21.15;11.50;;;;;;;13.83;64.40;100961.06;5071188;28;20049;-70
2022/11/28 02:17:02;;;;;;;15.10;11.55;;;;;;;14.12;63.81;100954.53;5070733;28;20515;-70
2022/11/28 02:19:49;;;;;;;16.90;11.55;;;;;;;14.25;63.70;100965.00;5075361;28;20068;-69
2022/11/28 02:22:31;;;;;;;20.92;11.52;;;;;;;14.48;63.01;100947.81;5075342;28;20048;-69
2022/11/28 02:25:14;;;;;;;23.92;10.98;;;;;;;14.25;63.21;100951.50;5075105;28;20119;-70
2022/11/28 02:27:53;;;;;;;16.25;12.40;;;;;;;13.89;64.32;100949.28;5075501;28;20032;-70
2022/11/28 02:30:21;;;;;;;17.50;12.48;;;;;;;14.30;63.63;100945.38;5074038;28;20061;-70
2022/11/28 02:33:14;;;;;;;28.15;12.52;;;;;;;13.56;66.40;100938.44;5075139;28;20060;-70
2022/11/28 02:36:19;;;;;;;20.20;12.85;;;;;;;14.26;64.10;100942.31;5058108;28;20072;-69
2022/11/28 02:39:12;;;;;;;20.88;11.73;;;;;;;13.98;64.89;100942.41;5053535;28;20036;-69
2022/11/28 02:41:43;;;;;;;23.95;14.10;;;;;;;13.15;67.87;100942.19;5055031;28;20041;-70
2022/11/28 02:44:30;;;;;;;24.45;12.15;;;;;;;14.07;65.20;100943.66;5054781;28;20052;-69
2022/11/28 02:47:07;;;;;;;22.08;12.52;;;;;;;13.69;66.04;100952.44;5054768;28;20041;-69
2022/11/28 02:49:40;;;;;;;22.70;14.43;;;;;;;14.44;63.41;100942.09;5055367;28;20045;-70
2022/11/28 02:52:13;;;;;;;18.90;11.75;;;;;;;13.82;65.41;100948.59;5074395;28;20039;-70
2022/11/28 02:54:42;;;;;;;21.67;13.88;;;;;;;13.20;68.18;100936.94;5074505;28;20025;-71
2022/11/28 02:57:07;;;;;;;18.13;12.93;;;;;;;14.10;65.38;100935.88;5073954;28;20647;-69
2022/11/28 02:59:35;;;;;;;25.00;13.20;;;;;;;13.61;66.99;100938.50;5074043;28;20123;-70
2022/11/28 03:02:03;;;;;;;24.05;11.30;;;;;;;13.07;68.98;100935.31;5074364;28;20042;-70
2022/11/28 03:04:31;;;;;;;20.48;13.57;;;;;;;13.57;66.40;100937.34;5074363;28;20436;-70
2022/11/28 03:07:34;;;;;;;20.27;13.32;;;;;;;14.15;64.34;100932.44;5069814;28;20082;-70
2022/11/28 03:10:11;;;;;;;17.02;13.20;;;;;;;14.49;64.00;100928.66;5054366;28;20484;-70
2022/11/28 03:12:48;;;;;;;21.17;12.52;;;;;;;14.20;65.04;100929.78;5037109;28;20036;-69
2022/11/28 03:15:18;;;;;;;22.38;13.00;;;;;;;14.15;64.29;100931.59;5054312;28;20086;-70
2022/11/28 03:18:02;;;;;;;29.88;14.18;;;;;;;14.25;64.99;100940.69;5054226;28;20072;-69
2022/11/28 03:20:45;;;;;;;18.73;12.02;;;;;;;14.36;64.62;100931.69;5053884;28;20124;-70
2022/11/28 03:23:16;;;;;;;19.98;12.77;;;;;;;13.88;65.88;100934.94;5053288;28;20060;-70
2022/11/28 03:25:59;;;;;;;;;;;;;;;14.28;64.41;100931.28;5054021;28;20040;-70
2022/11/28 03:28:41;;;;;;;23.88;12.18;;;;;;;14.21;65.30;100928.72;5064404;28;19917;-70
2022/11/28 03:31:12;;;;;;;19.70;14.02;;;;;;;14.18;64.74;100936.50;5072938;28;20051;-69
2022/11/28 03:33:40;;;;;;;;;;;;;;;14.28;65.17;100921.31;5074477;28;20222;-69
2022/11/28 03:36:15;;;;;;;20.73;12.63;;;;;;;14.14;65.49;100925.38;5053850;28;20410;-70
2022/11/28 03:38:46;;;;;;;21.83;13.70;;;;;;;13.82;66.46;100924.28;5053000;28;20123;-69
2022/11/28 03:41:21;;;;;;;;;;;;;;;14.11;66.14;100926.69;5053442;28;20041;-70
2022/11/28 03:43:52;;;;;;;19.17;12.50;;;;;;;13.98;66.69;100923.50;5053122;28;19923;-70
2022/11/28 03:46:21;;;;;;;18.98;13.10;;;;;;;14.36;65.23;100920.88;5058497;28;20086;-71
2022/11/28 03:48:51;;;;;;;20.60;12.30;;;;;;;14.53;64.87;100920.84;5074315;28;20025;-72
2022/11/28 03:51:24;;;;;;;22.90;12.63;;;;;;;14.77;63.33;100920.38;5073862;28;20044;-71
2022/11/28 03:53:54;;;;;;;28.23;12.13;;;;;;;14.49;64.71;100919.72;5073727;28;20090;-71
2022/11/28 03:56:24;;;;;;;15.30;10.30;;;;;;;13.31;68.50;100919.03;5073530;28;20040;-69
2022/11/28 03:59:01;;;;;;;16.98;11.82;;;;;;;14.54;64.72;100907.09;5073309;28;20043;-70
2022/11/28 04:01:35;;;;;;;17.50;13.00;;;;;;;14.34;65.86;100927.59;5055430;28;20118;-70
2022/11/28 04:04:18;;;;;;;20.35;12.10;;;;;;;13.82;67.06;100925.13;5073116;28;20025;-70
2022/11/28 04:07:22;;;;;;;17.73;12.32;;;;;;;14.29;65.59;100925.63;5074111;28;20519;-69
2022/11/28 04:09:54;;;;;;;18.20;12.48;;;;;;;14.56;65.01;100931.19;5073296;28;20036;-70
2022/11/28 04:12:34;;;;;;;15.13;12.00;;;;;;;14.13;66.70;100928.34;5073682;28;20488;-70
2022/11/28 04:15:08;;;;;;;17.30;12.65;;;;;;;14.90;63.91;100941.66;5073084;28;20031;-70
2022/11/28 04:17:54;;;;;;;21.65;12.70;;;;;;;14.49;65.44;100925.94;5073147;28;20112;-70
2022/11/28 04:20:37;;;;;;;18.38;13.35;;;;;;;14.33;65.55;100929.47;5073224;28;20043;-70
2022/11/28 04:23:09;;;;;;;17.15;12.85;;;;;;;13.99;66.26;100923.22;5073141;28;20049;-69
2022/11/28 04:25:38;;;;;;;17.50;13.68;;;;;;;14.20;66.42;100927.09;5073208;28;20049;-69
2022/11/28 04:28:10;;;;;;;21.75;13.45;;;;;;;13.88;66.82;100920.63;5072618;28;20021;-69
2022/11/28 04:30:37;;;;;;;21.80;15.50;;;;;;;13.93;67.30;100924.25;5073349;28;20385;-70
2022/11/28 04:33:08;;;;;;;19.33;13.88;;;;;;;14.22;66.70;100922.25;5072356;28;20407;-70
2022/11/28 04:35:37;;;;;;;16.75;13.55;;;;;;;14.32;65.22;100927.03;5072505;28;20119;-70
2022/11/28 04:38:06;;;;;;;20.38;13.15;;;;;;;14.62;64.72;100914.75;5072622;28;20500;-70
2022/11/28 04:40:36;;;;;;;21.48;13.48;;;;;;;14.98;63.27;100916.88;5072246;28;20043;-70
2022/11/28 04:43:08;;;;;;;13.95;11.23;;;;;;;13.65;67.98;100918.06;5063565;28;20376;-70
2022/11/28 04:45:38;;;;;;;17.27;12.65;;;;;;;14.00;66.96;100930.28;5053086;28;20136;-70
2022/11/28 04:48:04;;;;;;;17.50;12.90;;;;;;;14.51;65.65;100928.38;5052596;28;20036;-70
2022/11/28 04:50:47;;;;;;;18.13;11.90;;;;;;;13.96;67.64;100933.72;5052620;28;20404;-70
2022/11/28 04:53:37;;;;;;;18.17;12.20;;;;;;;14.27;66.09;100924.22;5052519;28;20082;-70
2022/11/28 04:56:12;;;;;;;21.75;11.70;;;;;;;14.36;66.02;100925.47;5051732;28;20528;-69
2022/11/28 04:58:42;;;;;;;17.88;12.43;;;;;;;13.59;69.21;100929.81;5040991;28;20048;-70
2022/11/28 05:01:11;;;;;;;15.20;11.97;;;;;;;14.60;65.75;100935.03;5068557;28;20166;-70
2022/11/28 05:03:38;;;;;;;16.90;11.63;;;;;;;14.91;64.14;100918.13;5066362;28;20414;-68
2022/11/28 05:06:04;;;;;;;14.52;9.23;;;;;;;13.93;66.86;100929.66;5064042;28;20037;-70
2022/11/28 05:08:30;;;;;;;15.68;11.63;;;;;;;14.57;65.55;100932.81;5053572;28;20056;-70
2022/11/28 05:10:55;;;;;;;16.35;10.90;;;;;;;14.30;66.39;100929.16;5053353;28;20124;-70
2022/11/28 05:13:21;;;;;;;15.30;11.02;;;;;;;13.86;67.85;100931.66;5071409;28;20653;-70
2022/11/28 05:15:46;;;;;;;14.77;10.93;;;;;;;13.85;67.41;100935.44;5072389;28;20031;-70
2022/11/28 05:18:11;;;;;;;13.93;10.43;;;;;;;14.49;65.88;100927.81;5053868;28;20115;-71
2022/11/28 05:20:38;;;;;;;13.18;10.05;;;;;;;14.21;65.92;100933.31;5071925;28;20082;-71
2022/11/28 05:23:03;;;;;;;15.65;10.65;;;;;;;14.92;64.14;100928.69;5071871;28;20032;-71
2022/11/28 05:25:29;;;;;;;14.88;11.38;;;;;;;14.79;64.56;100933.66;5071731;28;20040;-68
2022/11/28 05:27:54;;;;;;;16.40;10.50;;;;;;;14.83;64.66;100932.09;5049552;28;20033;-70
2022/11/28 05:30:19;;;;;;;14.77;12.10;;;;;;;14.53;65.27;100935.19;5052253;28;20116;-71
2022/11/28 05:32:45;;;;;;;14.40;12.48;;;;;;;14.76;64.58;100934.97;5051905;28;20033;-69
2022/11/28 05:35:11;;;;;;;19.42;12.93;;;;;;;14.49;65.50;100935.94;5051799;28;20121;-70
2022/11/28 05:37:36;;;;;;;19.20;13.35;;;;;;;14.49;65.80;100939.47;5051674;28;20037;-69
2022/11/28 05:40:03;;;;;;;15.57;12.00;;;;;;;14.68;64.30;100929.19;5051527;28;20126;-70
2022/11/28 05:42:32;;;;;;;17.38;13.32;;;;;;;14.70;64.99;100938.66;5056321;28;20032;-70
2022/11/28 05:44:57;;;;;;;18.60;12.35;;;;;;;14.46;65.85;100942.69;5071395;28;20048;-71
2022/11/28 05:47:24;;;;;;;16.25;12.57;;;;;;;14.50;65.27;100935.72;5053652;28;20131;-69
2022/11/28 05:49:49;;;;;;;19.52;13.57;;;;;;;14.17;66.15;100943.00;5071570;28;20071;-69
2022/11/28 05:52:14;;;;;;;16.73;12.43;;;;;;;14.56;65.12;100942.81;5070950;28;20123;-68
2022/11/28 05:54:40;;;;;;;15.13;12.80;;;;;;;14.27;66.65;100945.84;5071218;28;20051;-70
2022/11/28 05:57:06;;;;;;;16.95;12.93;;;;;;;14.77;64.61;100943.91;5062894;28;20390;-70
2022/11/28 05:59:32;;;;;;;18.65;14.32;;;;;;;14.59;65.25;100947.72;5051155;28;20124;-70
2022/11/28 06:01:57;;;;;;;17.77;11.63;;;;;;;14.32;66.59;100954.06;5051266;28;20490;-70
2022/11/28 06:04:22;;;;;;;18.48;11.70;;;;;;;14.57;65.51;100944.44;5051380;28;20136;-70
2022/11/28 06:06:49;;;;;;;18.35;13.07;;;;;;;14.36;66.18;100952.50;5033289;28;20461;-71
2022/11/28 06:09:14;;;;;;;16.75;13.68;;;;;;;14.84;64.76;100947.25;5051568;28;20025;-69
2022/11/28 06:11:39;;;;;;;16.75;12.43;;;;;;;14.24;66.76;100954.44;5051218;28;20083;-71
2022/11/28 06:14:05;;;;;;;16.58;12.95;;;;;;;14.47;66.32;100960.53;5051084;28;20075;-71
2022/11/28 06:16:31;;;;;;;18.23;12.27;;;;;;;14.16;66.24;100954.84;5051066;28;20120;-69
2022/11/28 06:19:02;;;;;;;15.93;12.13;;;;;;;14.52;66.15;100947.09;5051067;28;20511;-70
2022/11/28 06:21:29;;;;;;;18.23;12.43;;;;;;;14.67;65.70;100954.59;5051024;28;20037;-70
2022/11/28 06:23:57;;;;;;;14.88;12.30;;;;;;;14.44;66.45;100961.03;5050979;28;20509;-69
2022/11/28 06:26:24;;;;;;;17.38;12.55;;;;;;;13.73;68.54;100961.69;5033090;28;20128;-71
2022/11/28 06:28:49;;;;;;;15.65;13.05;;;;;;;13.43;69.07;100965.69;5046817;28;20041;-70
2022/11/28 06:31:20;;;;;;;16.95;11.98;;;;;;;13.45;70.07;100972.50;5032495;28;20041;-70
2022/11/28 06:33:46;;;;;;;14.75;12.00;;;;;;;14.00;68.15;100973.53;5050465;28;20035;-70
2022/11/28 06:36:13;;;;;;;14.77;12.25;;;;;;;14.49;66.42;100971.91;5049487;28;20037;-70
2022/11/28 06:38:39;;;;;;;16.70;12.27;;;;;;;13.72;69.11;100976.25;5050715;28;20083;-69
2022/11/28 06:41:07;;;;;;;19.63;12.68;;;;;;;13.31;70.40;100973.00;5048859;28;20037;-70
2022/11/28 06:43:33;;;;;;;17.55;12.80;;;;;;;13.76;69.14;100965.78;5048640;28;20830;-71
2022/11/28 06:45:58;;;;;;;21.10;12.05;;;;;;;14.38;66.47;100972.84;5048700;28;20124;-72
2022/11/28 06:48:24;;;;;;;19.92;13.15;;;;;;;14.82;65.34;100974.56;5048029;28;20480;-71
2022/11/28 06:50:51;;;;;;;16.75;12.30;;;;;;;15.08;63.22;100974.88;5047112;28;20041;-69
2022/11/28 06:53:17;;;;;;;14.07;11.68;;;;;;;14.69;65.00;100974.09;5049811;28;20033;-70
2022/11/28 06:55:42;;;;;;;15.18;11.95;;;;;;;14.81;64.67;100972.94;5049778;28;20500;-70
2022/11/28 06:58:08;;;;;;;14.07;11.38;;;;;;;14.73;64.00;100981.47;5059422;28;20064;-69
2022/11/28 07:00:35;;;;;;;13.05;10.75;;;;;;;14.67;64.87;100985.16;5068671;28;20032;-69
2022/11/28 07:03:00;;;;;;;15.02;12.13;;;;;;;14.64;64.89;100982.94;5069780;28;20089;-70
2022/11/28 07:05:29;;;;;;;14.02;11.25;;;;;;;14.35;66.36;100986.81;5067915;28;20037;-70
2022/11/28 07:07:59;;;;;;;15.98;11.00;;;;;;;15.13;63.61;100983.09;5073438;28;20166;-70
2022/11/28 07:10:26;;;;;;;14.13;10.77;;;;;;;14.49;65.69;100988.13;5073154;28;20115;-70
2022/11/28 07:12:56;;;;;;;16.40;10.90;;;;;;;13.93;68.25;100999.06;5072537;28;20044;-71
2022/11/28 07:15:22;;;;;;;12.77;11.25;;;;;;;14.49;65.31;100985.44;5065777;28;20029;-71
2022/11/28 07:17:49;;;;;;;15.13;11.13;;;;;;;14.47;66.24;100984.84;5068466;28;20465;-71
2022/11/28 07:20:14;;;;;;;12.10;9.93;;;;;;;14.84;64.28;100979.72;5071076;28;20358;-72
2022/11/28 07:22:39;;;;;;;16.42;10.50;;;;;;;14.96;63.71;100983.94;5070869;28;20112;-70
2022/11/28 07:25:05;;;;;;;12.68;10.30;;;;;;;14.52;65.35;100990.38;5054102;28;20404;-70
2022/11/28 07:27:31;;;;;;;15.55;11.13;;;;;;;14.34;66.35;100996.00;5071605;28;20029;-71
2022/11/28 07:29:56;;;;;;;13.27;11.05;;;;;;;14.46;66.18;101001.34;5071076;28;20500;-72
2022/11/28 07:32:21;;;;;;;12.10;10.15;;;;;;;14.95;64.75;101000.44;5071304;28;20492;-71
2022/11/28 07:34:47;;;;;;;12.68;10.38;;;;;;;14.16;67.09;101000.78;5066652;28;20547;-70
2022/11/28 07:37:12;;;;;;;11.30;9.43;;;;;;;14.86;64.75;101004.63;5068365;28;20056;-72
2022/11/28 07:39:38;;;;;;;11.27;10.07;;;;;;;15.01;63.84;101004.84;5070704;28;20109;-71
2022/11/28 07:42:03;;;;;;;13.50;10.85;;;;;;;14.67;65.05;101014.09;5071224;28;20516;-72
2022/11/28 07:44:29;;;;;;;11.48;9.52;;;;;;;14.84;64.95;101017.59;5071022;28;20028;-72
2022/11/28 07:46:54;;;;;;;12.88;9.98;;;;;;;14.64;65.96;101018.09;5069252;28;20041;-72
2022/11/28 07:49:19;;;;;;;12.65;9.70;;;;;;;15.12;64.16;101020.16;5069102;28;20040;-71
2022/11/28 07:51:45;;;;;;;12.32;10.98;;;;;;;15.07;64.19;101014.69;5071749;28;20452;-70
2022/11/28 07:54:10;;;;;;;11.73;9.13;;;;;;;14.55;65.50;101014.19;5070947;28;20453;-70
2022/11/28 07:56:37;;;;;;;16.05;11.05;;;;;;;14.93;64.72;101016.13;5070345;28;20491;-71
2022/11/28 07:59:03;;;;;;;13.88;10.68;;;;;;;15.37;63.15;101015.06;5068401;28;20136;-71
2022/11/28 08:01:32;;;;;;;12.77;10.32;;;;;;;14.70;64.89;101024.44;5070563;28;20036;-71
2022/11/28 08:03:58;;;;;;;12.27;9.85;;;;;;;14.96;64.31;101021.84;5070358;28;20028;-72
2022/11/28 08:06:26;;;;;;;12.75;9.68;;;;;;;14.69;65.73;101031.72;5071221;28;20009;-72
2022/11/28 08:08:53;;;;;;;12.68;9.10;;;;;;;15.23;63.73;101018.41;5070599;28;20039;-70
2022/11/28 08:11:21;;;;;;;12.25;10.02;;;;;;;14.85;64.51;101022.78;5070516;28;20040;-72
2022/11/28 08:13:46;;;;;;;12.82;9.05;;;;;;;15.04;64.57;101033.28;5070524;28;20044;-71
2022/11/28 08:16:15;;;;;;;12.00;9.15;;;;;;;14.23;66.84;101033.91;5069557;28;20085;-70
2022/11/28 08:18:41;;;;;;;13.07;8.85;;;;;;;14.96;64.69;101023.72;5069681;28;20373;-71
2022/11/28 08:21:24;;;;;;;12.88;10.05;;;;;;;15.34;63.40;101026.41;5071581;28;20043;-70
2022/11/28 08:23:51;;;;;;;12.15;8.52;;;;;;;15.17;64.20;101022.94;5071213;28;20442;-70
2022/11/28 08:26:19;;;;;;;10.50;9.05;;;;;;;15.37;63.08;101022.38;5071331;28;20407;-70
2022/11/28 08:28:45;;;;;;;11.65;9.55;;;;;;;14.97;64.55;101028.06;5071040;28;20029;-70
2022/11/28 08:31:19;;;;;;;12.55;9.93;;;;;;;15.54;63.06;101037.53;5071516;28;20416;-70
2022/11/28 08:33:46;;;;;;;11.23;9.85;;;;;;;14.86;64.76;101037.94;5072485;28;20075;-71
2022/11/28 08:36:13;;;;;;;12.43;9.05;;;;;;;14.71;65.01;101045.00;5071754;28;20043;-70
2022/11/28 08:38:40;;;;;;;10.57;8.88;;;;;;;14.27;66.33;101045.88;5071766;28;20072;-69
2022/11/28 08:41:09;;;;;;;11.75;10.35;;;;;;;14.90;65.09;101036.38;5071721;28;20432;-69
2022/11/28 08:43:36;;;;;;;10.75;9.35;;;;;;;15.38;63.31;101040.25;5058606;28;20076;-70
2022/11/28 08:46:07;;;;;;;12.55;9.52;;;;;;;15.17;63.95;101043.78;5051326;28;20103;-70
2022/11/28 08:48:34;;;;;;;12.82;9.43;;;;;;;15.00;64.84;101049.22;5050633;28;20021;-70
2022/11/28 08:51:00;;;;;;;12.25;9.80;;;;;;;15.41;63.55;101056.03;5051401;28;20551;-70
2022/11/28 08:53:25;;;;;;;12.48;10.10;;;;;;;15.27;63.95;101047.41;5051605;28;20056;-72
2022/11/28 08:55:50;;;;;;;12.48;9.90;;;;;;;15.66;62.45;101045.53;5051534;28;20044;-70
2022/11/28 08:58:16;;;;;;;11.32;10.13;;;;;;;15.22;63.98;101050.06;5051000;28;20051;-70
2022/11/28 09:00:41;;;;;;;14.40;10.85;;;;;;;15.11;64.48;101050.19;5051726;28;20487;-71
2022/11/28 09:03:11;;;;;;;12.23;10.05;;;;;;;15.82;62.54;101047.34;5051381;28;20082;-71
2022/11/28 09:05:37;;;;;;;13.38;11.00;;;;;;;15.63;62.93;101049.53;5051050;28;20041;-71
2022/11/28 09:08:02;;;;;;;13.88;10.25;;;;;;;15.75;62.27;101057.53;5051136;28;20503;-71
2022/11/28 09:10:28;;;;;;;13.73;9.73;;;;;;;16.03;61.58;101060.03;5051194;28;20505;-72
2022/11/28 09:12:53;;;;;;;10.38;9.27;;;;;;;15.88;62.02;101061.75;5050948;28;20082;-70
2022/11/28 09:15:18;;;;;;;11.90;10.00;;;;;;;15.84;62.21;101053.31;5054568;28;20483;-69
2022/11/28 09:17:45;;;;;;;12.07;10.00;;;;;;;15.81;62.46;101057.34;5070970;28;20493;-72
2022/11/28 09:20:11;;;;;;;9.75;8.77;;;;;;;15.95;62.14;101060.47;5069208;28;20131;-72
2022/11/28 09:22:36;;;;;;;10.43;9.38;;;;;;;15.83;62.08;101057.91;5065782;28;20123;-71
2022/11/28 09:25:02;;;;;;;9.18;8.23;;;;;;;16.02;61.52;101058.38;5066303;28;20511;-73
2022/11/28 09:27:27;;;;;;;9.52;8.48;;;;;;;15.73;62.75;101063.22;5067206;28;20021;-72
2022/11/28 09:29:52;;;;;;;8.48;7.50;;;;;;;15.52;63.89;101065.94;5067138;28;20043;-71
2022/11/28 09:32:18;;;;;;;9.10;8.20;;;;;;;15.72;63.37;101077.03;5066638;28;20507;-71
2022/11/28 09:34:43;;;;;;;9.18;7.93;;;;;;;16.04;62.19;101071.69;5070161;28;20581;-71
2022/11/28 09:37:09;;;;;;;8.73;7.60;;;;;;;15.90;62.06;101075.88;5062171;28;20127;-71
2022/11/28 09:39:35;;;;;;;9.85;8.85;;;;;;;15.89;62.77;101080.47;5056664;28;20096;-73
2022/11/28 09:42:25;;;;;;;9.23;8.32;;;;;;;16.00;62.54;101081.41;5046711;28;20037;-72
2022/11/28 09:44:56;;;;;;;10.43;8.90;;;;;;;15.80;62.99;101084.72;5067125;28;20033;-71
2022/11/28 09:47:25;;;;;;;10.00;8.93;;;;;;;16.06;62.25;101086.59;5066802;28;20044;-72
2022/11/28 09:50:19;;;;;;;10.95;9.00;;;;;;;15.78;62.32;101078.72;5066558;28;20090;-71
2022/11/28 09:52:54;;;;;;;11.38;9.50;;;;;;;15.88;62.39;101083.44;4985271;28;20534;-72
2022/11/28 09:55:38;;;;;;;11.15;9.45;;;;;;;16.29;61.64;101080.91;5001865;28;20464;-71
2022/11/28 09:58:14;;;;;;;11.77;9.27;;;;;;;16.34;61.27;101085.53;5004599;28;20072;-72
2022/11/28 10:01:00;;;;;;;10.35;8.35;;;;;;;16.29;61.49;101078.19;5004778;28;20460;-72
2022/11/28 10:03:38;;;;;;;12.27;10.02;;;;;;;16.29;61.77;101077.34;5004812;28;20379;-72
2022/11/28 10:06:20;;;;;;;14.43;10.15;;;;;;;16.63;60.81;101071.44;4994643;28;20414;-72
2022/11/28 10:08:45;;;;;;;12.30;10.35;;;;;;;16.60;60.69;101073.88;4984347;28;20434;-71
2022/11/28 10:11:21;;;;;;;11.13;9.20;;;;;;;16.29;61.77;101074.66;4968220;28;20050;-71
2022/11/28 10:13:59;;;;;;;10.63;9.50;;;;;;;16.10;62.03;101065.22;4984969;28;20049;-71
2022/11/28 10:16:27;;;;;;;12.60;10.32;;;;;;;16.53;60.93;101067.81;4996513;28;20066;-71
2022/11/28 10:19:01;;;;;;;11.35;10.15;;;;;;;16.34;61.57;101075.50;5003687;28;20111;-72
2022/11/28 10:21:34;;;;;;;11.75;9.93;;;;;;;16.36;61.91;101073.34;5004136;28;20434;-71
2022/11/28 10:24:11;;;;;;;12.13;10.43;;;;;;;16.61;60.56;101078.19;5004183;28;20575;-71
2022/11/28 10:26:40;;;;;;;10.40;9.30;;;;;;;16.12;61.55;101082.88;5004516;28;20053;-71
2022/11/28 10:29:44;;;;;;;13.05;10.48;;;;;;;16.16;62.81;101081.28;5007509;28;20036;-71
2022/11/28 10:32:15;;;;;;;10.80;9.32;;;;;;;16.60;60.95;101084.72;4982469;28;20065;-71
2022/11/28 10:34:46;;;;;;;11.43;9.18;;;;;;;16.49;61.75;101083.81;4985566;28;20046;-71
2022/11/28 10:37:25;;;;;;;10.30;8.52;;;;;;;15.90;63.32;101087.50;5003689;28;20104;-72
2022/11/28 10:39:51;;;;;;;10.98;9.48;;;;;;;16.21;62.38;101094.91;5006810;28;20064;-72
2022/11/28 10:42:21;;;;;;;11.57;9.98;;;;;;;15.72;64.24;101090.56;5008413;28;20069;-72
2022/11/28 10:45:21;;;;;;;10.75;9.30;;;;;;;15.53;64.04;101098.19;5007261;28;20129;-71
2022/11/28 10:47:58;;;;;;;13.80;9.35;;;;;;;16.38;62.55;101092.91;5007478;28;20088;-72
2022/11/28 10:50:40;;;;;;;10.70;9.32;;;;;;;16.31;62.46;101088.78;5007469;28;20124;-72
2022/11/28 10:53:19;;;;;;;11.82;9.48;;;;;;;16.03;63.21;101089.84;5007281;28;20063;-72
2022/11/28 10:55:47;;;;;;;11.98;9.35;;;;;;;15.04;66.09;101093.66;5007411;28;20100;-72
2022/11/28 10:58:20;;;;;;;10.52;9.02;;;;;;;16.07;63.19;101088.25;5007743;28;20042;-72
2022/11/28 11:00:48;;;;;;;13.00;9.65;;;;;;;15.92;63.37;101088.06;5008346;28;20038;-71
2022/11/28 11:03:17;;;;;;;13.45;9.32;;;;;;;16.36;61.82;101088.81;5007547;28;20471;-71
2022/11/28 11:05:43;;;;;;;12.52;9.50;;;;;;;15.78;63.64;101092.28;5006710;28;20413;-72
2022/11/28 11:08:20;;;;;;;13.07;9.98;;;;;;;16.26;62.25;101091.41;5035455;28;20069;-71
2022/11/28 11:11:00;;;;;;;13.05;10.85;;;;;;;16.54;61.29;101085.75;5050052;28;20131;-72
2022/11/28 11:13:28;;;;;;;12.23;10.68;;;;;;;16.32;61.94;101088.50;5050293;28;20131;-71
2022/11/28 11:16:02;;;;;;;12.48;9.45;;;;;;;16.18;62.80;101087.28;5057369;28;20100;-71
2022/11/28 11:18:35;;;;;;;9.88;8.77;;;;;;;15.93;63.63;101078.88;5069372;28;20061;-71
2022/11/28 11:21:22;;;;;;;10.85;9.15;;;;;;;16.49;61.00;101069.44;5069172;28;20064;-71
2022/11/28 11:24:08;;;;;;;12.32;9.68;;;;;;;16.61;60.96;101065.47;5067911;28;20500;-72
2022/11/28 11:26:38;;;;;;;13.75;9.50;;;;;;;16.31;62.62;101067.06;5069940;28;20555;-72
2022/11/28 11:29:04;;;;;;;12.38;9.07;;;;;;;15.75;63.53;101065.66;5069007;28;20033;-72